sensor_id;sensor_type;location;lat;lon;timestamp;temperature;humidity
14877;DHT22;22152;48.158;17.118;2023-04-03T00:00:47;8.20;62.20
14877;DHT22;22152;48.158;17.118;2023-04-03T00:03:40;8.30;62.20
14877;DHT22;22152;48.158;17.118;2023-04-03T00:06:14;8.40;61.80
14877;DHT22;22152;48.158;17.118;2023-04-03T00:09:06;8.30;61.60
14877;DHT22;22152;48.158;17.118;2023-04-03T00:11:39;8.30;61.60
14877;DHT22;22152;48.158;17.118;2023-04-03T00:14:31;8.30;61.70
14877;DHT22;22152;48.158;17.118;2023-04-03T00:17:11;8.30;61.80
14877;DHT22;22152;48.158;17.118;2023-04-03T00:19:57;8.20;62.10
14877;DHT22;22152;48.158;17.118;2023-04-03T00:22:37;8.20;61.90
14877;DHT22;22152;48.158;17.118;2023-04-03T00:25:22;8.30;62.00
14877;DHT22;22152;48.158;17.118;2023-04-03T00:28:02;8.30;61.90
14877;DHT22;22152;48.158;17.118;2023-04-03T00:30:50;8.30;61.90
14877;DHT22;22152;48.158;17.118;2023-04-03T00:33:28;8.20;61.70
14877;DHT22;22152;48.158;17.118;2023-04-03T00:36:14;8.20;61.80
14877;DHT22;22152;48.158;17.118;2023-04-03T00:38:54;8.20;61.80
14877;DHT22;22152;48.158;17.118;2023-04-03T00:41:40;8.20;61.70
14877;DHT22;22152;48.158;17.118;2023-04-03T00:47:29;8.30;61.70
14877;DHT22;22152;48.158;17.118;2023-04-03T00:50:22;8.30;61.50
14877;DHT22;22152;48.158;17.118;2023-04-03T00:52:56;8.20;61.50
14877;DHT22;22152;48.158;17.118;2023-04-03T00:55:51;8.10;61.70
14877;DHT22;22152;48.158;17.118;2023-04-03T00:58:32;8.00;61.90
14877;DHT22;22152;48.158;17.118;2023-04-03T01:01:28;8.00;62.20
14877;DHT22;22152;48.158;17.118;2023-04-03T01:04:01;8.00;62.20
14877;DHT22;22152;48.158;17.118;2023-04-03T01:06:59;8.00;62.30
14877;DHT22;22152;48.158;17.118;2023-04-03T01:09:33;8.00;62.10
14877;DHT22;22152;48.158;17.118;2023-04-03T01:12:33;8.10;61.90
14877;DHT22;22152;48.158;17.118;2023-04-03T01:15:17;8.10;62.00
14877;DHT22;22152;48.158;17.118;2023-04-03T01:18:22;8.10;61.80
14877;DHT22;22152;48.158;17.118;2023-04-03T01:24:17;8.00;62.10
14877;DHT22;22152;48.158;17.118;2023-04-03T01:26:58;8.10;61.70
14877;DHT22;22152;48.158;17.118;2023-04-03T01:29:51;8.10;61.60
14877;DHT22;22152;48.158;17.118;2023-04-03T01:32:24;8.10;61.40
14877;DHT22;22152;48.158;17.118;2023-04-03T01:35:16;8.10;61.30
14877;DHT22;22152;48.158;17.118;2023-04-03T01:37:49;8.20;61.10
14877;DHT22;22152;48.158;17.118;2023-04-03T01:40:42;8.10;60.70
14877;DHT22;22152;48.158;17.118;2023-04-03T01:43:15;8.10;60.80
14877;DHT22;22152;48.158;17.118;2023-04-03T01:46:07;8.00;61.30
14877;DHT22;22152;48.158;17.118;2023-04-03T01:49:01;8.00;60.60
14877;DHT22;22152;48.158;17.118;2023-04-03T01:51:34;7.90;60.40
14877;DHT22;22152;48.158;17.118;2023-04-03T01:54:26;7.90;60.70
14877;DHT22;22152;48.158;17.118;2023-04-03T01:56:59;7.90;60.80
14877;DHT22;22152;48.158;17.118;2023-04-03T01:59:51;7.90;60.90
14877;DHT22;22152;48.158;17.118;2023-04-03T02:02:24;7.90;61.80
14877;DHT22;22152;48.158;17.118;2023-04-03T02:05:16;7.90;61.00
14877;DHT22;22152;48.158;17.118;2023-04-03T02:07:49;8.00;60.70
14877;DHT22;22152;48.158;17.118;2023-04-03T02:10:42;8.00;60.70
14877;DHT22;22152;48.158;17.118;2023-04-03T02:13:15;8.10;60.60
14877;DHT22;22152;48.158;17.118;2023-04-03T02:16:09;8.10;60.10
14877;DHT22;22152;48.158;17.118;2023-04-03T02:18:49;8.10;60.00
14877;DHT22;22152;48.158;17.118;2023-04-03T02:21:36;8.10;59.90
14877;DHT22;22152;48.158;17.118;2023-04-03T02:24:15;8.20;60.00
14877;DHT22;22152;48.158;17.118;2023-04-03T02:27:01;8.20;60.00
14877;DHT22;22152;48.158;17.118;2023-04-03T02:29:40;8.20;60.00
14877;DHT22;22152;48.158;17.118;2023-04-03T02:32:26;8.30;60.10
14877;DHT22;22152;48.158;17.118;2023-04-03T02:35:06;8.30;59.80
14877;DHT22;22152;48.158;17.118;2023-04-03T02:37:53;8.20;60.10
14877;DHT22;22152;48.158;17.118;2023-04-03T02:40:32;8.20;60.50
14877;DHT22;22152;48.158;17.118;2023-04-03T02:43:18;8.20;60.50
14877;DHT22;22152;48.158;17.118;2023-04-03T02:46:05;8.20;60.60
14877;DHT22;22152;48.158;17.118;2023-04-03T02:49:00;8.10;60.80
14877;DHT22;22152;48.158;17.118;2023-04-03T02:51:32;8.20;61.10
14877;DHT22;22152;48.158;17.118;2023-04-03T02:54:25;8.10;60.80
14877;DHT22;22152;48.158;17.118;2023-04-03T02:57:04;8.10;61.20
14877;DHT22;22152;48.158;17.118;2023-04-03T02:59:57;8.00;61.00
14877;DHT22;22152;48.158;17.118;2023-04-03T03:02:29;7.90;61.50
14877;DHT22;22152;48.158;17.118;2023-04-03T03:05:22;7.80;61.40
14877;DHT22;22152;48.158;17.118;2023-04-03T03:07:54;7.80;62.00
14877;DHT22;22152;48.158;17.118;2023-04-03T03:10:47;7.80;61.80
14877;DHT22;22152;48.158;17.118;2023-04-03T03:13:19;7.90;61.70
14877;DHT22;22152;48.158;17.118;2023-04-03T03:16:12;7.90;61.50
14877;DHT22;22152;48.158;17.118;2023-04-03T03:18:44;7.80;61.10
14877;DHT22;22152;48.158;17.118;2023-04-03T03:21:37;7.80;61.30
14877;DHT22;22152;48.158;17.118;2023-04-03T03:24:09;7.80;61.30
14877;DHT22;22152;48.158;17.118;2023-04-03T03:27:02;7.70;60.70
14877;DHT22;22152;48.158;17.118;2023-04-03T03:29:34;7.70;60.80
14877;DHT22;22152;48.158;17.118;2023-04-03T03:32:27;7.80;60.50
14877;DHT22;22152;48.158;17.118;2023-04-03T03:35:01;7.90;60.20
14877;DHT22;22152;48.158;17.118;2023-04-03T03:37:53;7.80;60.20
14877;DHT22;22152;48.158;17.118;2023-04-03T03:40:26;7.80;59.90
14877;DHT22;22152;48.158;17.118;2023-04-03T03:43:19;7.90;59.80
14877;DHT22;22152;48.158;17.118;2023-04-03T03:45:54;7.90;59.80
14877;DHT22;22152;48.158;17.118;2023-04-03T03:48:47;7.90;59.70
14877;DHT22;22152;48.158;17.118;2023-04-03T03:51:19;7.90;60.00
14877;DHT22;22152;48.158;17.118;2023-04-03T03:54:13;7.90;60.30
14877;DHT22;22152;48.158;17.118;2023-04-03T03:56:46;8.00;60.30
14877;DHT22;22152;48.158;17.118;2023-04-03T03:59:38;8.00;60.10
14877;DHT22;22152;48.158;17.118;2023-04-03T04:02:12;8.00;60.20
14877;DHT22;22152;48.158;17.118;2023-04-03T04:05:05;8.00;60.30
14877;DHT22;22152;48.158;17.118;2023-04-03T04:07:38;7.90;60.10
14877;DHT22;22152;48.158;17.118;2023-04-03T04:10:31;7.90;60.30
14877;DHT22;22152;48.158;17.118;2023-04-03T04:13:06;7.90;60.40
14877;DHT22;22152;48.158;17.118;2023-04-03T04:15:59;7.80;60.30
14877;DHT22;22152;48.158;17.118;2023-04-03T04:18:33;7.80;60.10
14877;DHT22;22152;48.158;17.118;2023-04-03T04:21:26;7.70;60.40
14877;DHT22;22152;48.158;17.118;2023-04-03T04:24:06;7.80;60.70
14877;DHT22;22152;48.158;17.118;2023-04-03T04:26:53;7.80;60.70
14877;DHT22;22152;48.158;17.118;2023-04-03T04:29:32;7.70;60.50
14877;DHT22;22152;48.158;17.118;2023-04-03T04:32:18;7.60;60.70
14877;DHT22;22152;48.158;17.118;2023-04-03T04:34:57;7.60;60.80
14877;DHT22;22152;48.158;17.118;2023-04-03T04:37:46;7.70;60.70
14877;DHT22;22152;48.158;17.118;2023-04-03T04:40:26;7.70;60.60
14877;DHT22;22152;48.158;17.118;2023-04-03T04:43:12;7.70;60.20
14877;DHT22;22152;48.158;17.118;2023-04-03T04:46:05;7.70;60.30
14877;DHT22;22152;48.158;17.118;2023-04-03T04:49:04;7.70;60.40
14877;DHT22;22152;48.158;17.118;2023-04-03T04:51:37;7.70;60.20
14877;DHT22;22152;48.158;17.118;2023-04-03T04:54:31;7.70;60.30
14877;DHT22;22152;48.158;17.118;2023-04-03T04:57:04;7.70;60.30
14877;DHT22;22152;48.158;17.118;2023-04-03T04:59:57;7.70;60.20
14877;DHT22;22152;48.158;17.118;2023-04-03T05:02:30;7.80;60.10
14877;DHT22;22152;48.158;17.118;2023-04-03T05:05:23;7.80;60.00
14877;DHT22;22152;48.158;17.118;2023-04-03T05:07:57;7.70;59.80
14877;DHT22;22152;48.158;17.118;2023-04-03T05:10:52;7.60;59.80
14877;DHT22;22152;48.158;17.118;2023-04-03T05:13:27;7.70;59.80
14877;DHT22;22152;48.158;17.118;2023-04-03T05:16:20;7.80;59.60
14877;DHT22;22152;48.158;17.118;2023-04-03T05:18:54;7.90;59.20
14877;DHT22;22152;48.158;17.118;2023-04-03T05:21:47;7.90;58.90
14877;DHT22;22152;48.158;17.118;2023-04-03T05:24:26;8.00;59.20
14877;DHT22;22152;48.158;17.118;2023-04-03T05:27:13;7.80;58.30
14877;DHT22;22152;48.158;17.118;2023-04-03T05:29:57;7.70;58.20
14877;DHT22;22152;48.158;17.118;2023-04-03T05:32:45;7.70;58.30
14877;DHT22;22152;48.158;17.118;2023-04-03T05:35:36;7.60;58.40
14877;DHT22;22152;48.158;17.118;2023-04-03T05:38:26;7.50;58.30
14877;DHT22;22152;48.158;17.118;2023-04-03T05:41:05;7.60;58.70
14877;DHT22;22152;48.158;17.118;2023-04-03T05:43:52;7.60;58.30
14877;DHT22;22152;48.158;17.118;2023-04-03T05:46:38;7.80;58.20
14877;DHT22;22152;48.158;17.118;2023-04-03T05:49:32;8.00;58.00
14877;DHT22;22152;48.158;17.118;2023-04-03T05:52:05;8.10;57.50
14877;DHT22;22152;48.158;17.118;2023-04-03T05:54:58;8.10;57.30
14877;DHT22;22152;48.158;17.118;2023-04-03T05:57:33;8.20;57.10
14877;DHT22;22152;48.158;17.118;2023-04-03T06:00:26;8.30;56.80
14877;DHT22;22152;48.158;17.118;2023-04-03T06:03:02;8.30;56.10
14877;DHT22;22152;48.158;17.118;2023-04-03T06:05:55;8.20;56.10
14877;DHT22;22152;48.158;17.118;2023-04-03T06:08:27;8.20;56.00
14877;DHT22;22152;48.158;17.118;2023-04-03T06:11:20;8.10;55.90
14877;DHT22;22152;48.158;17.118;2023-04-03T06:13:54;8.20;56.00
14877;DHT22;22152;48.158;17.118;2023-04-03T06:16:47;8.30;55.90
14877;DHT22;22152;48.158;17.118;2023-04-03T06:19:21;8.70;55.40
14877;DHT22;22152;48.158;17.118;2023-04-03T06:22:14;9.00;54.80
14877;DHT22;22152;48.158;17.118;2023-04-03T06:24:54;9.30;54.30
14877;DHT22;22152;48.158;17.118;2023-04-03T06:27:40;9.40;53.10
14877;DHT22;22152;48.158;17.118;2023-04-03T06:30:19;9.60;53.10
14877;DHT22;22152;48.158;17.118;2023-04-03T06:33:05;9.90;52.70
14877;DHT22;22152;48.158;17.118;2023-04-03T06:35:44;10.30;51.10
14877;DHT22;22152;48.158;17.118;2023-04-03T06:38:32;10.70;50.90
14877;DHT22;22152;48.158;17.118;2023-04-03T06:41:12;11.20;50.00
14877;DHT22;22152;48.158;17.118;2023-04-03T06:43:58;11.30;48.40
14877;DHT22;22152;48.158;17.118;2023-04-03T06:46:44;11.40;47.90
14877;DHT22;22152;48.158;17.118;2023-04-03T06:49:37;11.50;47.20
14877;DHT22;22152;48.158;17.118;2023-04-03T06:52:09;11.40;46.80
14877;DHT22;22152;48.158;17.118;2023-04-03T06:55:03;11.30;47.30
14877;DHT22;22152;48.158;17.118;2023-04-03T06:57:37;11.10;46.60
14877;DHT22;22152;48.158;17.118;2023-04-03T07:00:30;10.80;47.20
14877;DHT22;22152;48.158;17.118;2023-04-03T07:03:03;10.90;47.80
14877;DHT22;22152;48.158;17.118;2023-04-03T07:05:56;11.20;47.70
14877;DHT22;22152;48.158;17.118;2023-04-03T07:08:28;11.90;47.40
14877;DHT22;22152;48.158;17.118;2023-04-03T07:11:21;12.20;46.10
14877;DHT22;22152;48.158;17.118;2023-04-03T07:13:54;12.00;45.40
14877;DHT22;22152;48.158;17.118;2023-04-03T07:16:47;11.60;45.30
14877;DHT22;22152;48.158;17.118;2023-04-03T07:19:19;11.30;46.00
14877;DHT22;22152;48.158;17.118;2023-04-03T07:22:13;11.00;46.20
14877;DHT22;22152;48.158;17.118;2023-04-03T07:24:45;10.70;46.50
14877;DHT22;22152;48.158;17.118;2023-04-03T07:27:38;10.50;46.80
14877;DHT22;22152;48.158;17.118;2023-04-03T07:30:11;10.30;46.70
14877;DHT22;22152;48.158;17.118;2023-04-03T07:33:05;10.00;47.10
14877;DHT22;22152;48.158;17.118;2023-04-03T07:35:39;9.80;47.90
14877;DHT22;22152;48.158;17.118;2023-04-03T07:38:34;9.60;48.50
14877;DHT22;22152;48.158;17.118;2023-04-03T07:41:12;9.80;49.30
14877;DHT22;22152;48.158;17.118;2023-04-03T07:44:09;10.10;47.40
14877;DHT22;22152;48.158;17.118;2023-04-03T07:46:49;10.80;47.00
14877;DHT22;22152;48.158;17.118;2023-04-03T07:49:43;11.40;46.20
14877;DHT22;22152;48.158;17.118;2023-04-03T07:52:15;11.50;44.70
14877;DHT22;22152;48.158;17.118;2023-04-03T07:55:08;11.10;44.60
14877;DHT22;22152;48.158;17.118;2023-04-03T07:57:40;10.90;45.20
14877;DHT22;22152;48.158;17.118;2023-04-03T08:00:33;10.80;45.10
14877;DHT22;22152;48.158;17.118;2023-04-03T08:03:06;10.70;45.10
14877;DHT22;22152;48.158;17.118;2023-04-03T08:06:04;10.50;45.40
14877;DHT22;22152;48.158;17.118;2023-04-03T08:08:37;10.30;45.30
14877;DHT22;22152;48.158;17.118;2023-04-03T08:11:30;10.30;45.50
14877;DHT22;22152;48.158;17.118;2023-04-03T08:14:03;10.20;45.30
14877;DHT22;22152;48.158;17.118;2023-04-03T08:17:01;10.10;45.20
14877;DHT22;22152;48.158;17.118;2023-04-03T08:19:37;10.00;45.20
14877;DHT22;22152;48.158;17.118;2023-04-03T08:22:30;10.10;45.20
14877;DHT22;22152;48.158;17.118;2023-04-03T08:25:02;10.10;44.70
14877;DHT22;22152;48.158;17.118;2023-04-03T08:27:56;10.10;44.50
14877;DHT22;22152;48.158;17.118;2023-04-03T08:30:28;10.10;44.10
14877;DHT22;22152;48.158;17.118;2023-04-03T08:33:21;10.00;43.80
14877;DHT22;22152;48.158;17.118;2023-04-03T08:35:53;9.80;44.80
14877;DHT22;22152;48.158;17.118;2023-04-03T08:38:46;9.50;44.30
14877;DHT22;22152;48.158;17.118;2023-04-03T08:41:45;9.50;44.60
14877;DHT22;22152;48.158;17.118;2023-04-03T08:44:51;9.40;44.80
14877;DHT22;22152;48.158;17.118;2023-04-03T08:47:41;9.60;45.40
14877;DHT22;22152;48.158;17.118;2023-04-03T08:50:57;9.90;44.90
14877;DHT22;22152;48.158;17.118;2023-04-03T08:53:35;9.90;43.50
14877;DHT22;22152;48.158;17.118;2023-04-03T08:56:31;9.90;43.70
14877;DHT22;22152;48.158;17.118;2023-04-03T08:59:10;10.30;43.20
14877;DHT22;22152;48.158;17.118;2023-04-03T09:02:28;10.80;42.70
14877;DHT22;22152;48.158;17.118;2023-04-03T09:12:03;11.20;41.00
14877;DHT22;22152;48.158;17.118;2023-04-03T09:18:37;11.60;39.20
14877;DHT22;22152;48.158;17.118;2023-04-03T09:21:32;11.20;39.40
14877;DHT22;22152;48.158;17.118;2023-04-03T09:24:28;10.80;39.30
14877;DHT22;22152;48.158;17.118;2023-04-03T09:27:08;10.30;39.30
14877;DHT22;22152;48.158;17.118;2023-04-03T09:30:03;10.20;39.40
14877;DHT22;22152;48.158;17.118;2023-04-03T09:32:36;10.00;39.50
14877;DHT22;22152;48.158;17.118;2023-04-03T09:35:34;9.90;40.70
14877;DHT22;22152;48.158;17.118;2023-04-03T09:41:15;9.70;40.80
14877;DHT22;22152;48.158;17.118;2023-04-03T09:43:53;9.60;41.10
14877;DHT22;22152;48.158;17.118;2023-04-03T09:46:47;9.70;41.00
14877;DHT22;22152;48.158;17.118;2023-04-03T09:49:40;9.70;40.60
14877;DHT22;22152;48.158;17.118;2023-04-03T09:52:25;9.70;40.70
14877;DHT22;22152;48.158;17.118;2023-04-03T09:55:24;9.70;39.60
14877;DHT22;22152;48.158;17.118;2023-04-03T09:58:04;9.80;39.10
14877;DHT22;22152;48.158;17.118;2023-04-03T10:01:00;9.70;38.90
14877;DHT22;22152;48.158;17.118;2023-04-03T10:03:40;9.80;38.50
14877;DHT22;22152;48.158;17.118;2023-04-03T10:06:36;9.80;38.20
14877;DHT22;22152;48.158;17.118;2023-04-03T10:09:32;10.10;37.70
14877;DHT22;22152;48.158;17.118;2023-04-03T10:12:30;10.40;37.30
14877;DHT22;22152;48.158;17.118;2023-04-03T10:15:15;10.50;36.60
14877;DHT22;22152;48.158;17.118;2023-04-03T10:21:34;10.30;36.00
14877;DHT22;22152;48.158;17.118;2023-04-03T10:24:41;10.20;34.90
14877;DHT22;22152;48.158;17.118;2023-04-03T10:27:46;10.10;34.60
14877;DHT22;22152;48.158;17.118;2023-04-03T10:33:38;10.50;35.60
14877;DHT22;22152;48.158;17.118;2023-04-03T10:36:47;10.70;35.70
14877;DHT22;22152;48.158;17.118;2023-04-03T10:39:46;10.50;35.10
14877;DHT22;22152;48.158;17.118;2023-04-03T10:43:08;10.30;35.10
14877;DHT22;22152;48.158;17.118;2023-04-03T10:52:22;10.20;35.60
14877;DHT22;22152;48.158;17.118;2023-04-03T10:58:30;10.20;35.80
14877;DHT22;22152;48.158;17.118;2023-04-03T11:01:38;10.30;35.70
14877;DHT22;22152;48.158;17.118;2023-04-03T11:04:12;10.80;36.00
14877;DHT22;22152;48.158;17.118;2023-04-03T11:07:15;11.20;35.40
14877;DHT22;22152;48.158;17.118;2023-04-03T11:10:03;11.70;34.80
14877;DHT22;22152;48.158;17.118;2023-04-03T11:13:34;11.60;34.20
14877;DHT22;22152;48.158;17.118;2023-04-03T11:16:12;10.80;33.70
14877;DHT22;22152;48.158;17.118;2023-04-03T11:19:18;10.50;33.90
14877;DHT22;22152;48.158;17.118;2023-04-03T11:22:04;10.30;34.70
14877;DHT22;22152;48.158;17.118;2023-04-03T11:36:59;11.10;35.40
14877;DHT22;22152;48.158;17.118;2023-04-03T11:39:34;11.00;35.60
14877;DHT22;22152;48.158;17.118;2023-04-03T11:42:39;11.00;35.20
14877;DHT22;22152;48.158;17.118;2023-04-03T11:53:49;11.30;35.50
14877;DHT22;22152;48.158;17.118;2023-04-03T11:56:42;11.70;34.80
14877;DHT22;22152;48.158;17.118;2023-04-03T11:59:23;12.00;33.90
14877;DHT22;22152;48.158;17.118;2023-04-03T12:02:49;12.00;33.60
14877;DHT22;22152;48.158;17.118;2023-04-03T12:05:30;11.70;32.40
14877;DHT22;22152;48.158;17.118;2023-04-03T12:08:52;11.40;32.60
14877;DHT22;22152;48.158;17.118;2023-04-03T12:11:28;11.20;33.00
14877;DHT22;22152;48.158;17.118;2023-04-03T12:14:24;11.20;33.30
14877;DHT22;22152;48.158;17.118;2023-04-03T12:16:58;10.90;32.70
14877;DHT22;22152;48.158;17.118;2023-04-03T12:19:51;10.60;32.50
14877;DHT22;22152;48.158;17.118;2023-04-03T12:22:23;10.20;32.70
14877;DHT22;22152;48.158;17.118;2023-04-03T12:25:41;10.30;33.70
14877;DHT22;22152;48.158;17.118;2023-04-03T12:28:21;10.30;33.00
14877;DHT22;22152;48.158;17.118;2023-04-03T12:31:14;10.30;33.10
14877;DHT22;22152;48.158;17.118;2023-04-03T12:34:09;10.10;33.30
14877;DHT22;22152;48.158;17.118;2023-04-03T12:47:33;10.10;32.40
14877;DHT22;22152;48.158;17.118;2023-04-03T12:50:30;9.80;34.20
14877;DHT22;22152;48.158;17.118;2023-04-03T12:53:10;9.80;34.50
14877;DHT22;22152;48.158;17.118;2023-04-03T12:56:26;9.90;34.80
14877;DHT22;22152;48.158;17.118;2023-04-03T12:59:27;9.80;34.10
14877;DHT22;22152;48.158;17.118;2023-04-03T13:02:31;9.70;34.00
14877;DHT22;22152;48.158;17.118;2023-04-03T13:05:10;9.70;34.20
14877;DHT22;22152;48.158;17.118;2023-04-03T13:08:13;9.80;34.10
14877;DHT22;22152;48.158;17.118;2023-04-03T13:10:54;9.90;34.00
14877;DHT22;22152;48.158;17.118;2023-04-03T13:14:12;9.80;34.20
14877;DHT22;22152;48.158;17.118;2023-04-03T13:17:10;9.50;34.60
14877;DHT22;22152;48.158;17.118;2023-04-03T13:20:35;9.40;34.70
14877;DHT22;22152;48.158;17.118;2023-04-03T13:23:08;9.40;34.80
14877;DHT22;22152;48.158;17.118;2023-04-03T13:26:06;9.50;34.60
14877;DHT22;22152;48.158;17.118;2023-04-03T13:28:39;9.60;34.80
14877;DHT22;22152;48.158;17.118;2023-04-03T13:31:36;9.80;34.90
14877;DHT22;22152;48.158;17.118;2023-04-03T13:34:10;9.90;35.10
14877;DHT22;22152;48.158;17.118;2023-04-03T13:37:06;9.70;35.20
14877;DHT22;22152;48.158;17.118;2023-04-03T13:39:40;9.70;35.60
14877;DHT22;22152;48.158;17.118;2023-04-03T13:42:35;9.80;35.60
14877;DHT22;22152;48.158;17.118;2023-04-03T13:45:30;9.90;35.20
14877;DHT22;22152;48.158;17.118;2023-04-03T13:48:25;9.70;34.80
14877;DHT22;22152;48.158;17.118;2023-04-03T13:51:23;9.60;35.20
14877;DHT22;22152;48.158;17.118;2023-04-03T13:53:59;9.60;35.00
14877;DHT22;22152;48.158;17.118;2023-04-03T13:56:55;9.50;35.20
14877;DHT22;22152;48.158;17.118;2023-04-03T13:59:32;9.80;35.30
14877;DHT22;22152;48.158;17.118;2023-04-03T14:02:32;9.90;34.90
14877;DHT22;22152;48.158;17.118;2023-04-03T14:05:06;9.80;34.60
14877;DHT22;22152;48.158;17.118;2023-04-03T14:08:00;9.70;34.30
14877;DHT22;22152;48.158;17.118;2023-04-03T14:10:34;9.50;34.30
14877;DHT22;22152;48.158;17.118;2023-04-03T14:13:30;9.50;34.20
14877;DHT22;22152;48.158;17.118;2023-04-03T14:16:03;9.60;34.60
14877;DHT22;22152;48.158;17.118;2023-04-03T14:18:57;9.70;34.60
14877;DHT22;22152;48.158;17.118;2023-04-03T14:21:29;9.60;34.70
14877;DHT22;22152;48.158;17.118;2023-04-03T14:24:22;9.60;34.80
14877;DHT22;22152;48.158;17.118;2023-04-03T14:26:55;9.40;34.70
14877;DHT22;22152;48.158;17.118;2023-04-03T14:29:51;9.40;34.60
14877;DHT22;22152;48.158;17.118;2023-04-03T14:32:32;9.30;34.70
14877;DHT22;22152;48.158;17.118;2023-04-03T14:35:19;9.30;34.70
14877;DHT22;22152;48.158;17.118;2023-04-03T14:37:59;9.30;34.80
14877;DHT22;22152;48.158;17.118;2023-04-03T14:40:45;9.30;35.00
14877;DHT22;22152;48.158;17.118;2023-04-03T14:43:24;9.20;34.60
14877;DHT22;22152;48.158;17.118;2023-04-03T14:46:14;8.90;34.50
14877;DHT22;22152;48.158;17.118;2023-04-03T14:49:03;9.00;35.00
14877;DHT22;22152;48.158;17.118;2023-04-03T14:51:58;8.80;34.60
14877;DHT22;22152;48.158;17.118;2023-04-03T14:54:30;8.70;34.80
14877;DHT22;22152;48.158;17.118;2023-04-03T14:57:28;8.90;35.20
14877;DHT22;22152;48.158;17.118;2023-04-03T15:00:01;9.00;35.90
14877;DHT22;22152;48.158;17.118;2023-04-03T15:02:55;9.10;35.40
14877;DHT22;22152;48.158;17.118;2023-04-03T15:05:27;9.00;35.30
14877;DHT22;22152;48.158;17.118;2023-04-03T15:08:25;8.90;35.10
14877;DHT22;22152;48.158;17.118;2023-04-03T15:11:01;8.80;35.00
14877;DHT22;22152;48.158;17.118;2023-04-03T15:13:54;8.70;34.90
14877;DHT22;22152;48.158;17.118;2023-04-03T15:16:26;8.70;35.10
14877;DHT22;22152;48.158;17.118;2023-04-03T15:19:19;8.80;35.40
14877;DHT22;22152;48.158;17.118;2023-04-03T15:21:52;8.60;35.70
14877;DHT22;22152;48.158;17.118;2023-04-03T15:24:45;8.60;36.10
14877;DHT22;22152;48.158;17.118;2023-04-03T15:27:18;8.60;36.40
14877;DHT22;22152;48.158;17.118;2023-04-03T15:30:15;8.60;36.10
14877;DHT22;22152;48.158;17.118;2023-04-03T15:32:56;8.30;34.80
14877;DHT22;22152;48.158;17.118;2023-04-03T15:35:42;8.20;34.60
14877;DHT22;22152;48.158;17.118;2023-04-03T15:38:22;8.10;34.20
14877;DHT22;22152;48.158;17.118;2023-04-03T15:41:07;7.90;34.20
14877;DHT22;22152;48.158;17.118;2023-04-03T15:43:47;7.80;34.60
14877;DHT22;22152;48.158;17.118;2023-04-03T15:46:33;7.80;34.70
14877;DHT22;22152;48.158;17.118;2023-04-03T15:49:26;7.80;34.80
14877;DHT22;22152;48.158;17.118;2023-04-03T15:51:59;7.70;35.50
14877;DHT22;22152;48.158;17.118;2023-04-03T15:54:52;7.70;34.90
14877;DHT22;22152;48.158;17.118;2023-04-03T15:57:25;7.60;35.00
14877;DHT22;22152;48.158;17.118;2023-04-03T16:00:18;7.60;35.00
14877;DHT22;22152;48.158;17.118;2023-04-03T16:02:54;7.60;35.20
14877;DHT22;22152;48.158;17.118;2023-04-03T16:05:50;7.50;35.30
14877;DHT22;22152;48.158;17.118;2023-04-03T16:08:23;7.50;35.60
14877;DHT22;22152;48.158;17.118;2023-04-03T16:11:15;7.50;35.80
14877;DHT22;22152;48.158;17.118;2023-04-03T16:13:48;7.40;35.60
14877;DHT22;22152;48.158;17.118;2023-04-03T16:16:41;7.40;35.60
14877;DHT22;22152;48.158;17.118;2023-04-03T16:19:13;7.30;35.60
14877;DHT22;22152;48.158;17.118;2023-04-03T16:22:05;7.20;35.60
14877;DHT22;22152;48.158;17.118;2023-04-03T16:24:38;7.20;36.00
14877;DHT22;22152;48.158;17.118;2023-04-03T16:27:30;7.30;36.20
14877;DHT22;22152;48.158;17.118;2023-04-03T16:30:04;7.30;36.30
14877;DHT22;22152;48.158;17.118;2023-04-03T16:32:57;7.30;36.30
14877;DHT22;22152;48.158;17.118;2023-04-03T16:35:37;7.20;36.30
14877;DHT22;22152;48.158;17.118;2023-04-03T16:38:24;7.20;36.30
14877;DHT22;22152;48.158;17.118;2023-04-03T16:41:04;7.00;36.30
14877;DHT22;22152;48.158;17.118;2023-04-03T16:43:49;6.90;36.40
14877;DHT22;22152;48.158;17.118;2023-04-03T16:46:29;6.80;36.70
14877;DHT22;22152;48.158;17.118;2023-04-03T16:49:21;6.80;36.60
14877;DHT22;22152;48.158;17.118;2023-04-03T16:52:17;6.80;36.70
14877;DHT22;22152;48.158;17.118;2023-04-03T16:54:50;6.80;37.00
14877;DHT22;22152;48.158;17.118;2023-04-03T16:57:44;6.70;36.70
14877;DHT22;22152;48.158;17.118;2023-04-03T17:00:17;6.60;36.70
14877;DHT22;22152;48.158;17.118;2023-04-03T17:03:10;6.60;36.80
14877;DHT22;22152;48.158;17.118;2023-04-03T17:05:47;6.60;36.90
14877;DHT22;22152;48.158;17.118;2023-04-03T17:08:41;6.50;37.00
14877;DHT22;22152;48.158;17.118;2023-04-03T17:11:26;6.40;37.20
14877;DHT22;22152;48.158;17.118;2023-04-03T17:14:20;6.40;38.00
14877;DHT22;22152;48.158;17.118;2023-04-03T17:16:53;6.30;37.50
14877;DHT22;22152;48.158;17.118;2023-04-03T17:19:45;6.30;37.70
14877;DHT22;22152;48.158;17.118;2023-04-03T17:22:18;6.30;37.70
14877;DHT22;22152;48.158;17.118;2023-04-03T17:25:11;6.20;37.90
14877;DHT22;22152;48.158;17.118;2023-04-03T17:27:44;6.20;37.90
14877;DHT22;22152;48.158;17.118;2023-04-03T17:30:36;6.10;38.00
14877;DHT22;22152;48.158;17.118;2023-04-03T17:33:09;6.10;38.10
14877;DHT22;22152;48.158;17.118;2023-04-03T17:36:03;6.00;38.10
14877;DHT22;22152;48.158;17.118;2023-04-03T17:38:37;6.00;38.30
14877;DHT22;22152;48.158;17.118;2023-04-03T17:41:30;5.90;38.30
14877;DHT22;22152;48.158;17.118;2023-04-03T17:44:03;5.80;38.50
14877;DHT22;22152;48.158;17.118;2023-04-03T17:46:57;5.80;38.50
14877;DHT22;22152;48.158;17.118;2023-04-03T17:49:49;5.80;38.70
14877;DHT22;22152;48.158;17.118;2023-04-03T17:52:23;5.80;38.80
14877;DHT22;22152;48.158;17.118;2023-04-03T17:55:16;5.70;38.90
14877;DHT22;22152;48.158;17.118;2023-04-03T17:57:49;5.70;39.30
14877;DHT22;22152;48.158;17.118;2023-04-03T18:00:41;5.60;39.40
14877;DHT22;22152;48.158;17.118;2023-04-03T18:03:13;5.60;39.70
14877;DHT22;22152;48.158;17.118;2023-04-03T18:06:09;5.60;39.80
14877;DHT22;22152;48.158;17.118;2023-04-03T18:08:47;5.60;39.90
14877;DHT22;22152;48.158;17.118;2023-04-03T18:11:48;5.50;39.80
14877;DHT22;22152;48.158;17.118;2023-04-03T18:14:23;5.60;40.00
14877;DHT22;22152;48.158;17.118;2023-04-03T18:17:17;5.50;40.10
14877;DHT22;22152;48.158;17.118;2023-04-03T18:19:51;5.50;40.20
14877;DHT22;22152;48.158;17.118;2023-04-03T18:22:44;5.40;40.20
14877;DHT22;22152;48.158;17.118;2023-04-03T18:25:17;5.40;40.20
14877;DHT22;22152;48.158;17.118;2023-04-03T18:28:10;5.30;40.20
14877;DHT22;22152;48.158;17.118;2023-04-03T18:30:43;5.30;40.40
14877;DHT22;22152;48.158;17.118;2023-04-03T18:33:36;5.30;40.30